sensor_id;sensor_type;location;lat;lon;timestamp;temperature;humidity
64599;SHT31;51008;51.504;11.548;2023-04-03T00:02:16;-0.08;89.87
64599;SHT31;51008;51.504;11.548;2023-04-03T00:07:17;0.02;89.54
64599;SHT31;51008;51.504;11.548;2023-04-03T00:12:18;0.04;90.15
64599;SHT31;51008;51.504;11.548;2023-04-03T00:17:19;0.10;89.61
64599;SHT31;51008;51.504;11.548;2023-04-03T00:22:20;0.14;89.88
64599;SHT31;51008;51.504;11.548;2023-04-03T00:27:21;0.18;89.56
64599;SHT31;51008;51.504;11.548;2023-04-03T00:32:23;0.20;89.81
64599;SHT31;51008;51.504;11.548;2023-04-03T00:37:24;0.18;90.05
64599;SHT31;51008;51.504;11.548;2023-04-03T00:42:25;0.21;89.61
64599;SHT31;51008;51.504;11.548;2023-04-03T00:47:26;0.21;89.60
64599;SHT31;51008;51.504;11.548;2023-04-03T00:52:29;0.18;89.44
64599;SHT31;51008;51.504;11.548;2023-04-03T00:57:31;0.11;89.44
64599;SHT31;51008;51.504;11.548;2023-04-03T01:02:32;0.09;89.66
64599;SHT31;51008;51.504;11.548;2023-04-03T01:07:34;-0.01;89.45
64599;SHT31;51008;51.504;11.548;2023-04-03T01:12:38;-0.08;89.61
64599;SHT31;51008;51.504;11.548;2023-04-03T01:17:46;-0.08;89.70
64599;SHT31;51008;51.504;11.548;2023-04-03T01:28:17;-0.08;89.91
64599;SHT31;51008;51.504;11.548;2023-04-03T01:33:19;-0.18;89.66
64599;SHT31;51008;51.504;11.548;2023-04-03T01:38:21;-0.23;89.60
64599;SHT31;51008;51.504;11.548;2023-04-03T01:43:22;-0.26;89.98
64599;SHT31;51008;51.504;11.548;2023-04-03T01:48:23;-0.26;90.22
64599;SHT31;51008;51.504;11.548;2023-04-03T01:53:24;-0.33;90.05
64599;SHT31;51008;51.504;11.548;2023-04-03T01:58:25;-0.48;90.64
64599;SHT31;51008;51.504;11.548;2023-04-03T02:03:28;-0.49;90.47
64599;SHT31;51008;51.504;11.548;2023-04-03T02:08:29;-0.63;90.87
64599;SHT31;51008;51.504;11.548;2023-04-03T02:13:30;-0.70;90.92
64599;SHT31;51008;51.504;11.548;2023-04-03T02:18:31;-0.79;90.84
64599;SHT31;51008;51.504;11.548;2023-04-03T02:23:32;-0.84;91.04
64599;SHT31;51008;51.504;11.548;2023-04-03T02:28:33;-0.93;91.17
64599;SHT31;51008;51.504;11.548;2023-04-03T02:33:35;-1.05;91.43
64599;SHT31;51008;51.504;11.548;2023-04-03T02:38:36;-1.07;91.88
64599;SHT31;51008;51.504;11.548;2023-04-03T02:43:38;-1.12;92.07
64599;SHT31;51008;51.504;11.548;2023-04-03T02:48:40;-1.13;92.15
64599;SHT31;51008;51.504;11.548;2023-04-03T02:53:41;-1.13;92.02
64599;SHT31;51008;51.504;11.548;2023-04-03T02:58:48;-1.12;91.94
64599;SHT31;51008;51.504;11.548;2023-04-03T03:03:51;-1.24;92.16
64599;SHT31;51008;51.504;11.548;2023-04-03T03:08:52;-1.29;92.25
64599;SHT31;51008;51.504;11.548;2023-04-03T03:13:54;-1.32;92.24
64599;SHT31;51008;51.504;11.548;2023-04-03T03:18:55;-1.38;92.18
64599;SHT31;51008;51.504;11.548;2023-04-03T03:23:56;-1.40;92.25
64599;SHT31;51008;51.504;11.548;2023-04-03T03:28:57;-1.46;92.49
64599;SHT31;51008;51.504;11.548;2023-04-03T03:33:58;-1.49;92.58
64599;SHT31;51008;51.504;11.548;2023-04-03T03:38:59;-1.60;92.63
64599;SHT31;51008;51.504;11.548;2023-04-03T03:44:00;-1.62;92.70
64599;SHT31;51008;51.504;11.548;2023-04-03T03:49:04;-1.62;92.49
64599;SHT31;51008;51.504;11.548;2023-04-03T03:54:06;-1.67;92.52
64599;SHT31;51008;51.504;11.548;2023-04-03T03:59:08;-1.80;93.13
64599;SHT31;51008;51.504;11.548;2023-04-03T04:04:09;-1.77;93.04
64599;SHT31;51008;51.504;11.548;2023-04-03T04:09:10;-1.81;92.77
64599;SHT31;51008;51.504;11.548;2023-04-03T04:14:11;-1.84;93.06
64599;SHT31;51008;51.504;11.548;2023-04-03T04:19:13;-1.91;93.26
64599;SHT31;51008;51.504;11.548;2023-04-03T04:24:14;-1.92;93.44
64599;SHT31;51008;51.504;11.548;2023-04-03T04:29:16;-1.99;93.09
64599;SHT31;51008;51.504;11.548;2023-04-03T04:34:21;-2.01;93.19
64599;SHT31;51008;51.504;11.548;2023-04-03T04:39:22;-2.06;93.20
64599;SHT31;51008;51.504;11.548;2023-04-03T04:44:23;-2.05;93.05
64599;SHT31;51008;51.504;11.548;2023-04-03T04:49:24;-2.08;93.29
64599;SHT31;51008;51.504;11.548;2023-04-03T04:54:26;-2.03;93.16
64599;SHT31;51008;51.504;11.548;2023-04-03T04:59:27;-2.05;93.19
64599;SHT31;51008;51.504;11.548;2023-04-03T05:04:31;-2.03;93.24
64599;SHT31;51008;51.504;11.548;2023-04-03T05:09:38;-2.02;93.38
64599;SHT31;51008;51.504;11.548;2023-04-03T05:14:40;-1.98;93.42
64599;SHT31;51008;51.504;11.548;2023-04-03T05:19:43;-1.87;93.15
64599;SHT31;51008;51.504;11.548;2023-04-03T05:24:46;-1.81;93.04
64599;SHT31;51008;51.504;11.548;2023-04-03T05:29:47;-1.77;93.08
64599;SHT31;51008;51.504;11.548;2023-04-03T05:34:54;-1.70;93.08
64599;SHT31;51008;51.504;11.548;2023-04-03T05:39:55;-1.57;92.26
64599;SHT31;51008;51.504;11.548;2023-04-03T05:44:56;-1.45;92.17
64599;SHT31;51008;51.504;11.548;2023-04-03T05:49:57;-1.32;92.39
64599;SHT31;51008;51.504;11.548;2023-04-03T05:54:59;-1.18;91.76
64599;SHT31;51008;51.504;11.548;2023-04-03T06:00:05;-1.02;91.50
64599;SHT31;51008;51.504;11.548;2023-04-03T06:05:14;-0.95;90.92
64599;SHT31;51008;51.504;11.548;2023-04-03T06:10:15;-0.80;90.64
64599;SHT31;51008;51.504;11.548;2023-04-03T06:15:17;-0.57;90.20
64599;SHT31;51008;51.504;11.548;2023-04-03T06:20:18;-0.31;90.03
64599;SHT31;51008;51.504;11.548;2023-04-03T06:25:19;-0.01;89.29
64599;SHT31;51008;51.504;11.548;2023-04-03T06:30:20;0.24;88.60
64599;SHT31;51008;51.504;11.548;2023-04-03T06:35:21;0.34;87.14
64599;SHT31;51008;51.504;11.548;2023-04-03T06:40:24;0.72;87.29
64599;SHT31;51008;51.504;11.548;2023-04-03T06:45:25;1.10;85.63
64599;SHT31;51008;51.504;11.548;2023-04-03T06:50:26;1.48;83.94
64599;SHT31;51008;51.504;11.548;2023-04-03T06:55:27;1.70;82.44
64599;SHT31;51008;51.504;11.548;2023-04-03T07:00:28;2.04;81.49
64599;SHT31;51008;51.504;11.548;2023-04-03T07:05:29;2.41;81.33
64599;SHT31;51008;51.504;11.548;2023-04-03T07:10:30;2.97;79.56
64599;SHT31;51008;51.504;11.548;2023-04-03T07:15:31;3.46;78.78
64599;SHT31;51008;51.504;11.548;2023-04-03T07:20:32;4.05;75.57
64599;SHT31;51008;51.504;11.548;2023-04-03T07:25:33;4.66;74.43
64599;SHT31;51008;51.504;11.548;2023-04-03T07:30:34;5.11;72.68
64599;SHT31;51008;51.504;11.548;2023-04-03T07:35:35;5.40;70.58
64599;SHT31;51008;51.504;11.548;2023-04-03T07:40:37;5.81;70.73
64599;SHT31;51008;51.504;11.548;2023-04-03T07:45:38;6.05;68.52
64599;SHT31;51008;51.504;11.548;2023-04-03T07:50:42;6.48;68.85
64599;SHT31;51008;51.504;11.548;2023-04-03T07:55:47;6.82;66.47
64599;SHT31;51008;51.504;11.548;2023-04-03T08:00:49;7.14;66.59
64599;SHT31;51008;51.504;11.548;2023-04-03T08:05:50;7.06;66.91
64599;SHT31;51008;51.504;11.548;2023-04-03T08:10:52;6.08;66.73
64599;SHT31;51008;51.504;11.548;2023-04-03T08:15:54;5.04;69.82
64599;SHT31;51008;51.504;11.548;2023-04-03T08:20:55;4.85;70.83
64599;SHT31;51008;51.504;11.548;2023-04-03T08:25:56;4.57;72.29
64599;SHT31;51008;51.504;11.548;2023-04-03T08:31:02;5.65;70.79
64599;SHT31;51008;51.504;11.548;2023-04-03T08:36:06;5.54;68.31
64599;SHT31;51008;51.504;11.548;2023-04-03T08:41:35;5.68;67.71
64599;SHT31;51008;51.504;11.548;2023-04-03T08:52:02;6.41;66.20
64599;SHT31;51008;51.504;11.548;2023-04-03T08:57:05;6.05;64.32
64599;SHT31;51008;51.504;11.548;2023-04-03T09:07:36;5.53;66.27
64599;SHT31;51008;51.504;11.548;2023-04-03T09:12:43;5.74;66.12
64599;SHT31;51008;51.504;11.548;2023-04-03T09:22:47;6.89;60.22
64599;SHT31;51008;51.504;11.548;2023-04-03T09:27:49;7.06;61.60
64599;SHT31;51008;51.504;11.548;2023-04-03T09:32:52;6.20;63.65
64599;SHT31;51008;51.504;11.548;2023-04-03T09:37:58;5.68;64.83
64599;SHT31;51008;51.504;11.548;2023-04-03T09:43:02;5.98;63.18
64599;SHT31;51008;51.504;11.548;2023-04-03T09:48:25;5.50;60.32
64599;SHT31;51008;51.504;11.548;2023-04-03T09:53:27;5.55;61.71
64599;SHT31;51008;51.504;11.548;2023-04-03T09:58:30;5.40;61.42
64599;SHT31;51008;51.504;11.548;2023-04-03T10:03:34;6.15;62.13
64599;SHT31;51008;51.504;11.548;2023-04-03T10:08:38;5.58;60.82
64599;SHT31;51008;51.504;11.548;2023-04-03T10:13:51;5.16;61.37
64599;SHT31;51008;51.504;11.548;2023-04-03T10:19:02;5.48;60.76
64599;SHT31;51008;51.504;11.548;2023-04-03T10:24:11;5.98;59.37
64599;SHT31;51008;51.504;11.548;2023-04-03T10:34:45;6.10;58.62
64599;SHT31;51008;51.504;11.548;2023-04-03T10:45:21;5.79;60.06
64599;SHT31;51008;51.504;11.548;2023-04-03T10:50:27;6.93;59.56
64599;SHT31;51008;51.504;11.548;2023-04-03T10:55:53;7.57;55.23
64599;SHT31;51008;51.504;11.548;2023-04-03T11:01:01;7.92;51.64
64599;SHT31;51008;51.504;11.548;2023-04-03T11:06:08;7.68;52.62
64599;SHT31;51008;51.504;11.548;2023-04-03T11:11:14;7.81;51.90
64599;SHT31;51008;51.504;11.548;2023-04-03T11:16:21;7.75;53.62
64599;SHT31;51008;51.504;11.548;2023-04-03T11:21:45;6.96;53.99
64599;SHT31;51008;51.504;11.548;2023-04-03T11:26:49;7.75;54.11
64599;SHT31;51008;51.504;11.548;2023-04-03T11:37:52;7.71;53.97
64599;SHT31;51008;51.504;11.548;2023-04-03T11:48:42;6.85;53.98
64599;SHT31;51008;51.504;11.548;2023-04-03T11:53:43;6.61;55.57
64599;SHT31;51008;51.504;11.548;2023-04-03T12:04:12;6.50;55.00
64599;SHT31;51008;51.504;11.548;2023-04-03T12:14:28;6.55;56.51
64599;SHT31;51008;51.504;11.548;2023-04-03T12:19:31;6.74;57.54
64599;SHT31;51008;51.504;11.548;2023-04-03T12:24:38;6.43;57.49
64599;SHT31;51008;51.504;11.548;2023-04-03T12:29:47;6.51;57.80
64599;SHT31;51008;51.504;11.548;2023-04-03T12:40:31;6.44;57.91
64599;SHT31;51008;51.504;11.548;2023-04-03T12:45:41;7.24;58.54
64599;SHT31;51008;51.504;11.548;2023-04-03T12:50:46;7.06;52.25
64599;SHT31;51008;51.504;11.548;2023-04-03T12:55:47;6.72;54.12
64599;SHT31;51008;51.504;11.548;2023-04-03T13:01:08;6.58;55.37
64599;SHT31;51008;51.504;11.548;2023-04-03T13:06:34;6.52;56.79
64599;SHT31;51008;51.504;11.548;2023-04-03T13:11:40;6.37;57.54
64599;SHT31;51008;51.504;11.548;2023-04-03T13:16:42;5.99;56.97
64599;SHT31;51008;51.504;11.548;2023-04-03T13:22:02;6.09;56.13
64599;SHT31;51008;51.504;11.548;2023-04-03T13:27:05;6.34;55.59
64599;SHT31;51008;51.504;11.548;2023-04-03T13:32:20;6.25;56.07
64599;SHT31;51008;51.504;11.548;2023-04-03T13:37:23;6.03;57.13
64599;SHT31;51008;51.504;11.548;2023-04-03T13:42:30;5.97;56.01
64599;SHT31;51008;51.504;11.548;2023-04-03T13:47:39;6.13;57.06
64599;SHT31;51008;51.504;11.548;2023-04-03T13:52:47;6.06;56.94
64599;SHT31;51008;51.504;11.548;2023-04-03T14:03:00;6.10;57.07
64599;SHT31;51008;51.504;11.548;2023-04-03T14:08:01;5.91;59.28
64599;SHT31;51008;51.504;11.548;2023-04-03T14:13:03;5.97;58.96
64599;SHT31;51008;51.504;11.548;2023-04-03T14:18:04;6.01;59.41
64599;SHT31;51008;51.504;11.548;2023-04-03T14:23:05;6.10;59.56
64599;SHT31;51008;51.504;11.548;2023-04-03T14:28:18;6.06;57.80
64599;SHT31;51008;51.504;11.548;2023-04-03T14:33:21;5.98;58.67
64599;SHT31;51008;51.504;11.548;2023-04-03T14:38:30;6.12;58.55
64599;SHT31;51008;51.504;11.548;2023-04-03T14:43:31;6.05;55.73
64599;SHT31;51008;51.504;11.548;2023-04-03T14:48:32;5.81;56.66
64599;SHT31;51008;51.504;11.548;2023-04-03T14:53:34;5.74;54.90
64599;SHT31;51008;51.504;11.548;2023-04-03T14:58:35;5.61;57.72
64599;SHT31;51008;51.504;11.548;2023-04-03T15:03:36;5.40;58.59
64599;SHT31;51008;51.504;11.548;2023-04-03T15:08:37;5.25;59.93
64599;SHT31;51008;51.504;11.548;2023-04-03T15:13:38;5.20;59.95
64599;SHT31;51008;51.504;11.548;2023-04-03T15:18:39;5.19;59.59
64599;SHT31;51008;51.504;11.548;2023-04-03T15:23:40;5.15;59.34
64599;SHT31;51008;51.504;11.548;2023-04-03T15:28:42;5.12;58.43
64599;SHT31;51008;51.504;11.548;2023-04-03T15:33:43;5.07;56.00
64599;SHT31;51008;51.504;11.548;2023-04-03T15:38:44;5.01;57.48
64599;SHT31;51008;51.504;11.548;2023-04-03T15:43:47;4.89;55.69
64599;SHT31;51008;51.504;11.548;2023-04-03T15:48:48;4.80;56.65
64599;SHT31;51008;51.504;11.548;2023-04-03T15:53:50;4.71;56.78
64599;SHT31;51008;51.504;11.548;2023-04-03T15:58:51;4.64;57.78
64599;SHT31;51008;51.504;11.548;2023-04-03T16:03:52;4.58;59.04
64599;SHT31;51008;51.504;11.548;2023-04-03T16:08:53;4.58;58.62
64599;SHT31;51008;51.504;11.548;2023-04-03T16:13:57;4.52;58.50
64599;SHT31;51008;51.504;11.548;2023-04-03T16:18:58;4.53;58.46
64599;SHT31;51008;51.504;11.548;2023-04-03T16:24:00;4.46;59.43
64599;SHT31;51008;51.504;11.548;2023-04-03T16:29:01;4.38;60.68
64599;SHT31;51008;51.504;11.548;2023-04-03T16:34:02;4.36;63.13
64599;SHT31;51008;51.504;11.548;2023-04-03T16:39:04;4.29;63.13
64599;SHT31;51008;51.504;11.548;2023-04-03T16:44:05;4.22;63.33
64599;SHT31;51008;51.504;11.548;2023-04-03T16:49:06;4.18;63.29
64599;SHT31;51008;51.504;11.548;2023-04-03T16:54:06;4.05;59.68
64599;SHT31;51008;51.504;11.548;2023-04-03T16:59:07;3.95;60.59
64599;SHT31;51008;51.504;11.548;2023-04-03T17:04:08;3.91;61.56
64599;SHT31;51008;51.504;11.548;2023-04-03T17:09:09;3.81;62.67
64599;SHT31;51008;51.504;11.548;2023-04-03T17:14:10;3.64;60.50
64599;SHT31;51008;51.504;11.548;2023-04-03T17:19:11;3.69;60.84
64599;SHT31;51008;51.504;11.548;2023-04-03T17:24:13;3.63;61.56
64599;SHT31;51008;51.504;11.548;2023-04-03T17:29:14;3.58;63.92
64599;SHT31;51008;51.504;11.548;2023-04-03T17:34:15;3.50;63.63
64599;SHT31;51008;51.504;11.548;2023-04-03T17:39:16;3.48;64.44
64599;SHT31;51008;51.504;11.548;2023-04-03T17:44:18;3.39;65.01
64599;SHT31;51008;51.504;11.548;2023-04-03T17:49:18;3.35;65.23
64599;SHT31;51008;51.504;11.548;2023-04-03T17:54:19;3.33;64.65
64599;SHT31;51008;51.504;11.548;2023-04-03T17:59:20;3.29;65.87
64599;SHT31;51008;51.504;11.548;2023-04-03T18:04:21;3.22;65.49
64599;SHT31;51008;51.504;11.548;2023-04-03T18:09:28;3.15;66.83
64599;SHT31;51008;51.504;11.548;2023-04-03T18:14:31;3.11;67.64
64599;SHT31;51008;51.504;11.548;2023-04-03T18:19:33;3.07;67.05
64599;SHT31;51008;51.504;11.548;2023-04-03T18:24:34;3.04;67.63
64599;SHT31;51008;51.504;11.548;2023-04-03T18:29:37;2.98;67.64
64599;SHT31;51008;51.504;11.548;2023-04-03T18:34:40;2.94;67.07
64599;SHT31;51008;51.504;11.548;2023-04-03T18:39:41;2.94;66.62
64599;SHT31;51008;51.504;11.548;2023-04-03T18:44:44;2.91;66.72
64599;SHT31;51008;51.504;11.548;2023-04-03T18:49:47;2.86;66.88
64599;SHT31;51008;51.504;11.548;2023-04-03T18:54:48;2.80;67.49
64599;SHT31;51008;51.504;11.548;2023-04-03T18:59:49;2.83;64.85
64599;SHT31;51008;51.504;11.548;2023-04-03T19:04:52;2.76;66.24
64599;SHT31;51008;51.504;11.548;2023-04-03T19:09:54;2.69;67.18
64599;SHT31;51008;51.504;11.548;2023-04-03T19:14:55;2.62;68.63
64599;SHT31;51008;51.504;11.548;2023-04-03T19:19:58;2.57;68.47
64599;SHT31;51008;51.504;11.548;2023-04-03T19:25:00;2.54;69.23
64599;SHT31;51008;51.504;11.548;2023-04-03T19:30:01;2.54;67.00
64599;SHT31;51008;51.504;11.548;2023-04-03T19:35:03;2.56;64.81
64599;SHT31;51008;51.504;11.548;2023-04-03T19:40:04;2.52;66.15
64599;SHT31;51008;51.504;11.548;2023-04-03T19:45:06;2.50;65.59
64599;SHT31;51008;51.504;11.548;2023-04-03T19:50:08;2.48;67.43
64599;SHT31;51008;51.504;11.548;2023-04-03T19:55:09;2.50;66.42
64599;SHT31;51008;51.504;11.548;2023-04-03T20:00:11;2.45;66.76
64599;SHT31;51008;51.504;11.548;2023-04-03T20:05:12;2.48;64.40
64599;SHT31;51008;51.504;11.548;2023-04-03T20:10:14;2.41;66.30
64599;SHT31;51008;51.504;11.548;2023-04-03T20:15:15;2.42;66.84
64599;SHT31;51008;51.504;11.548;2023-04-03T20:20:16;2.34;67.82
64599;SHT31;51008;51.504;11.548;2023-04-03T20:25:17;2.32;67.89
64599;SHT31;51008;51.504;11.548;2023-04-03T20:30:18;2.34;68.35
64599;SHT31;51008;51.504;11.548;2023-04-03T20:35:20;2.28;68.46
64599;SHT31;51008;51.504;11.548;2023-04-03T20:40:21;2.28;68.68
64599;SHT31;51008;51.504;11.548;2023-04-03T20:45:22;2.32;67.55
64599;SHT31;51008;51.504;11.548;2023-04-03T20:50:27;2.27;69.71
64599;SHT31;51008;51.504;11.548;2023-04-03T20:55:29;2.18;68.83
64599;SHT31;51008;51.504;11.548;2023-04-03T21:00:30;2.17;68.13
64599;SHT31;51008;51.504;11.548;2023-04-03T21:05:31;2.18;66.51
64599;SHT31;51008;51.504;11.548;2023-04-03T21:21:24;2.01;72.36
64599;SHT31;51008;51.504;11.548;2023-04-03T21:26:27;1.96;69.97
64599;SHT31;51008;51.504;11.548;2023-04-03T21:31:54;1.96;71.20
64599;SHT31;51008;51.504;11.548;2023-04-03T21:37:05;1.97;71.77
64599;SHT31;51008;51.504;11.548;2023-04-03T21:42:06;1.93;72.52
64599;SHT31;51008;51.504;11.548;2023-04-03T21:47:07;1.93;73.55
64599;SHT31;51008;51.504;11.548;2023-04-03T21:52:08;1.93;71.98
64599;SHT31;51008;51.504;11.548;2023-04-03T21:57:09;1.91;72.97
64599;SHT31;51008;51.504;11.548;2023-04-03T22:02:11;1.89;73.02
64599;SHT31;51008;51.504;11.548;2023-04-03T22:07:12;1.89;72.82
64599;SHT31;51008;51.504;11.548;2023-04-03T22:12:13;1.84;73.49
64599;SHT31;51008;51.504;11.548;2023-04-03T22:17:14;1.86;73.68
64599;SHT31;51008;51.504;11.548;2023-04-03T22:22:15;1.87;74.46
64599;SHT31;51008;51.504;11.548;2023-04-03T22:27:16;1.79;74.49
64599;SHT31;51008;51.504;11.548;2023-04-03T22:32:17;1.76;75.29
64599;SHT31;51008;51.504;11.548;2023-04-03T22:37:18;1.70;75.42
64599;SHT31;51008;51.504;11.548;2023-04-03T22:42:20;1.73;74.94
64599;SHT31;51008;51.504;11.548;2023-04-03T22:47:21;1.70;74.51
64599;SHT31;51008;51.504;11.548;2023-04-03T22:52:22;1.69;74.79
64599;SHT31;51008;51.504;11.548;2023-04-03T22:57:23;1.72;75.17
64599;SHT31;51008;51.504;11.548;2023-04-03T23:02:24;1.63;74.04
64599;SHT31;51008;51.504;11.548;2023-04-03T23:07:25;1.62;74.39
64599;SHT31;51008;51.504;11.548;2023-04-03T23:12:27;1.63;74.38
64599;SHT31;51008;51.504;11.548;2023-04-03T23:17:28;1.63;74.73
64599;SHT31;51008;51.504;11.548;2023-04-03T23:22:29;1.60;75.07
64599;SHT31;51008;51.504;11.548;2023-04-03T23:27:30;1.59;75.44
64599;SHT31;51008;51.504;11.548;2023-04-03T23:32:31;1.59;75.88
64599;SHT31;51008;51.504;11.548;2023-04-03T23:37:32;1.56;75.94
64599;SHT31;51008;51.504;11.548;2023-04-03T23:42:33;1.56;76.67
64599;SHT31;51008;51.504;11.548;2023-04-03T23:47:35;1.56;77.17
64599;SHT31;51008;51.504;11.548;2023-04-03T23:52:37;1.55;76.93
64599;SHT31;51008;51.504;11.548;2023-04-03T23:57:40;1.62;76.83
